sensor_id;sensor_type;location;lat;lon;timestamp;temperature;humidity
17845;DHT22;9047;53.486;10.218;2022-08-01T20:05:57;16.30;99.90
17845;DHT22;9047;53.486;10.218;2022-08-01T20:08:33;16.30;99.90
17845;DHT22;9047;53.486;10.218;2022-08-01T20:11:02;16.20;99.90
17845;DHT22;9047;53.486;10.218;2022-08-01T20:13:29;16.20;99.90
17845;DHT22;9047;53.486;10.218;2022-08-01T20:15:57;16.20;99.90
17845;DHT22;9047;53.486;10.218;2022-08-01T20:18:24;16.10;99.90
17845;DHT22;9047;53.486;10.218;2022-08-01T20:20:52;16.10;99.90
17845;DHT22;9047;53.486;10.218;2022-08-01T20:23:24;16.00;99.90
17845;DHT22;9047;53.486;10.218;2022-08-01T20:25:56;16.00;99.90
17845;DHT22;9047;53.486;10.218;2022-08-01T20:28:26;16.00;99.90
17845;DHT22;9047;53.486;10.218;2022-08-01T20:30:55;15.90;99.90
17845;DHT22;9047;53.486;10.218;2022-08-01T20:33:23;15.90;99.90
17845;DHT22;9047;53.486;10.218;2022-08-01T20:35:51;15.90;99.90
17845;DHT22;9047;53.486;10.218;2022-08-01T20:38:22;15.80;99.90
17845;DHT22;9047;53.486;10.218;2022-08-01T20:40:51;15.80;99.90
17845;DHT22;9047;53.486;10.218;2022-08-01T20:43:20;15.70;99.90
17845;DHT22;9047;53.486;10.218;2022-08-01T20:45:48;15.60;99.90
17845;DHT22;9047;53.486;10.218;2022-08-01T20:48:17;15.60;99.90
17845;DHT22;9047;53.486;10.218;2022-08-01T20:50:45;15.60;99.90
17845;DHT22;9047;53.486;10.218;2022-08-01T20:53:34;15.50;99.90
17845;DHT22;9047;53.486;10.218;2022-08-01T20:56:07;15.50;99.90
17845;DHT22;9047;53.486;10.218;2022-08-01T20:58:53;15.50;99.90
17845;DHT22;9047;53.486;10.218;2022-08-01T21:01:26;15.50;99.90
17845;DHT22;9047;53.486;10.218;2022-08-01T21:04:03;15.40;99.90
17845;DHT22;9047;53.486;10.218;2022-08-01T21:06:35;15.40;99.90
17845;DHT22;9047;53.486;10.218;2022-08-01T21:09:12;15.40;99.90
17845;DHT22;9047;53.486;10.218;2022-08-01T21:12:00;15.30;99.90
17845;DHT22;9047;53.486;10.218;2022-08-01T21:14:48;15.30;99.90
17845;DHT22;9047;53.486;10.218;2022-08-01T21:17:27;15.20;99.90
17845;DHT22;9047;53.486;10.218;2022-08-01T21:19:56;15.20;99.90
17845;DHT22;9047;53.486;10.218;2022-08-01T21:22:32;15.10;99.90
17845;DHT22;9047;53.486;10.218;2022-08-01T21:25:06;15.00;99.90
17845;DHT22;9047;53.486;10.218;2022-08-01T21:27:39;14.90;99.90
17845;DHT22;9047;53.486;10.218;2022-08-01T21:30:08;15.00;99.90
17845;DHT22;9047;53.486;10.218;2022-08-01T21:32:42;14.90;99.90
17845;DHT22;9047;53.486;10.218;2022-08-01T21:35:12;14.80;99.90
17845;DHT22;9047;53.486;10.218;2022-08-01T21:37:41;14.80;99.90
17845;DHT22;9047;53.486;10.218;2022-08-01T21:40:10;14.80;99.90
17845;DHT22;9047;53.486;10.218;2022-08-01T21:42:38;14.70;99.90
17845;DHT22;9047;53.486;10.218;2022-08-01T21:45:14;14.80;99.90
17845;DHT22;9047;53.486;10.218;2022-08-01T21:47:47;14.60;99.90
17845;DHT22;9047;53.486;10.218;2022-08-01T21:50:24;14.60;99.90
17845;DHT22;9047;53.486;10.218;2022-08-01T21:53:03;14.50;99.90
17845;DHT22;9047;53.486;10.218;2022-08-01T21:55:51;14.60;99.90
17845;DHT22;9047;53.486;10.218;2022-08-01T21:58:33;14.60;99.90
17845;DHT22;9047;53.486;10.218;2022-08-01T22:01:26;14.50;99.90
17845;DHT22;9047;53.486;10.218;2022-08-01T22:04:30;14.50;99.90
17845;DHT22;9047;53.486;10.218;2022-08-01T22:07:18;14.40;99.90
17845;DHT22;9047;53.486;10.218;2022-08-01T22:10:03;14.40;99.90
17845;DHT22;9047;53.486;10.218;2022-08-01T22:16:25;14.40;99.90
17845;DHT22;9047;53.486;10.218;2022-08-01T22:19:36;14.30;99.90
17845;DHT22;9047;53.486;10.218;2022-08-01T22:22:32;14.20;99.90
17845;DHT22;9047;53.486;10.218;2022-08-01T22:25:30;14.20;99.90
17845;DHT22;9047;53.486;10.218;2022-08-01T22:28:06;14.10;99.90
17845;DHT22;9047;53.486;10.218;2022-08-01T22:30:46;14.00;99.90
17845;DHT22;9047;53.486;10.218;2022-08-01T22:33:22;14.00;99.90
17845;DHT22;9047;53.486;10.218;2022-08-01T22:35:50;14.00;99.90
17845;DHT22;9047;53.486;10.218;2022-08-01T22:41:14;13.90;99.90
17845;DHT22;9047;53.486;10.218;2022-08-01T22:43:49;13.90;99.90
17845;DHT22;9047;53.486;10.218;2022-08-01T22:46:26;13.80;99.90
17845;DHT22;9047;53.486;10.218;2022-08-01T22:48:59;13.70;99.90
17845;DHT22;9047;53.486;10.218;2022-08-01T22:51:37;13.70;99.90
17845;DHT22;9047;53.486;10.218;2022-08-01T22:54:15;13.60;99.90
17845;DHT22;9047;53.486;10.218;2022-08-01T22:56:49;13.60;99.90
17845;DHT22;9047;53.486;10.218;2022-08-01T22:59:26;13.60;99.90
17845;DHT22;9047;53.486;10.218;2022-08-01T23:01:59;13.50;99.90
17845;DHT22;9047;53.486;10.218;2022-08-01T23:04:34;13.50;99.90
17845;DHT22;9047;53.486;10.218;2022-08-01T23:07:05;13.40;99.90
17845;DHT22;9047;53.486;10.218;2022-08-01T23:09:35;13.40;99.90
17845;DHT22;9047;53.486;10.218;2022-08-01T23:12:03;13.30;99.90
17845;DHT22;9047;53.486;10.218;2022-08-01T23:14:33;13.20;99.90
17845;DHT22;9047;53.486;10.218;2022-08-01T23:17:12;13.10;99.90
17845;DHT22;9047;53.486;10.218;2022-08-01T23:19:48;13.00;99.90
17845;DHT22;9047;53.486;10.218;2022-08-01T23:22:17;12.90;99.90
17845;DHT22;9047;53.486;10.218;2022-08-01T23:24:51;12.90;99.90
17845;DHT22;9047;53.486;10.218;2022-08-01T23:27:19;12.80;99.90
17845;DHT22;9047;53.486;10.218;2022-08-01T23:29:53;12.70;99.90
17845;DHT22;9047;53.486;10.218;2022-08-01T23:32:23;12.70;99.90
17845;DHT22;9047;53.486;10.218;2022-08-01T23:34:55;12.60;99.90
17845;DHT22;9047;53.486;10.218;2022-08-01T23:37:23;12.50;99.90
17845;DHT22;9047;53.486;10.218;2022-08-01T23:39:51;12.50;99.90
17845;DHT22;9047;53.486;10.218;2022-08-01T23:42:21;12.40;99.90
17845;DHT22;9047;53.486;10.218;2022-08-01T23:44:48;12.40;99.90
17845;DHT22;9047;53.486;10.218;2022-08-01T23:47:18;12.40;99.90
17845;DHT22;9047;53.486;10.218;2022-08-01T23:49:45;12.30;99.90
17845;DHT22;9047;53.486;10.218;2022-08-01T23:52:14;12.30;99.90
17845;DHT22;9047;53.486;10.218;2022-08-01T23:54:41;12.20;99.90
17845;DHT22;9047;53.486;10.218;2022-08-01T23:57:11;12.20;99.90
17845;DHT22;9047;53.486;10.218;2022-08-01T23:59:39;12.20;99.90
